sensor_id;sensor_type;location;lat;lon;timestamp;P1;durP1;ratioP1;P2;durP2;ratioP2
22949;SDS011;11641;51.018;4.474;2023-03-01T00:01:08;11.85;;;7.43;;
22949;SDS011;11641;51.018;4.474;2023-03-01T00:03:36;10.02;;;7.32;;
22949;SDS011;11641;51.018;4.474;2023-03-01T00:06:02;11.52;;;6.88;;
22949;SDS011;11641;51.018;4.474;2023-03-01T00:08:30;10.45;;;6.82;;
22949;SDS011;11641;51.018;4.474;2023-03-01T00:13:29;10.02;;;6.85;;
22949;SDS011;11641;51.018;4.474;2023-03-01T00:15:55;9.90;;;6.72;;
22949;SDS011;11641;51.018;4.474;2023-03-01T00:18:21;15.38;;;8.05;;
22949;SDS011;11641;51.018;4.474;2023-03-01T00:20:54;11.07;;;7.22;;
22949;SDS011;11641;51.018;4.474;2023-03-01T00:23:21;11.23;;;6.93;;
22949;SDS011;11641;51.018;4.474;2023-03-01T00:25:48;11.07;;;7.00;;
22949;SDS011;11641;51.018;4.474;2023-03-01T00:28:14;11.48;;;7.05;;
22949;SDS011;11641;51.018;4.474;2023-03-01T00:30:43;10.93;;;7.40;;
22949;SDS011;11641;51.018;4.474;2023-03-01T00:33:08;10.48;;;6.93;;
22949;SDS011;11641;51.018;4.474;2023-03-01T00:35:36;11.90;;;7.00;;
22949;SDS011;11641;51.018;4.474;2023-03-01T00:38:02;13.18;;;7.82;;
22949;SDS011;11641;51.018;4.474;2023-03-01T00:40:29;12.13;;;7.40;;
22949;SDS011;11641;51.018;4.474;2023-03-01T00:42:57;14.27;;;6.80;;
22949;SDS011;11641;51.018;4.474;2023-03-01T00:45:23;12.32;;;7.70;;
22949;SDS011;11641;51.018;4.474;2023-03-01T00:47:50;11.93;;;7.03;;
22949;SDS011;11641;51.018;4.474;2023-03-01T00:50:16;12.27;;;7.28;;
22949;SDS011;11641;51.018;4.474;2023-03-01T00:52:43;11.65;;;6.75;;
22949;SDS011;11641;51.018;4.474;2023-03-01T00:55:11;12.88;;;7.13;;
22949;SDS011;11641;51.018;4.474;2023-03-01T00:57:37;9.15;;;6.95;;
22949;SDS011;11641;51.018;4.474;2023-03-01T01:00:04;11.43;;;7.28;;
22949;SDS011;11641;51.018;4.474;2023-03-01T01:02:34;12.93;;;7.07;;
22949;SDS011;11641;51.018;4.474;2023-03-01T01:05:00;14.63;;;7.55;;
22949;SDS011;11641;51.018;4.474;2023-03-01T01:07:26;10.85;;;6.90;;
22949;SDS011;11641;51.018;4.474;2023-03-01T01:09:52;11.02;;;6.60;;
22949;SDS011;11641;51.018;4.474;2023-03-01T01:12:17;16.92;;;7.72;;
22949;SDS011;11641;51.018;4.474;2023-03-01T01:14:43;10.73;;;6.90;;
22949;SDS011;11641;51.018;4.474;2023-03-01T01:17:09;11.48;;;7.15;;
22949;SDS011;11641;51.018;4.474;2023-03-01T01:19:35;12.30;;;7.57;;
22949;SDS011;11641;51.018;4.474;2023-03-01T01:22:00;9.68;;;6.90;;
22949;SDS011;11641;51.018;4.474;2023-03-01T01:24:26;13.27;;;7.43;;
22949;SDS011;11641;51.018;4.474;2023-03-01T01:26:52;11.10;;;7.40;;
22949;SDS011;11641;51.018;4.474;2023-03-01T01:29:19;10.82;;;7.10;;
22949;SDS011;11641;51.018;4.474;2023-03-01T01:31:45;10.77;;;6.93;;
22949;SDS011;11641;51.018;4.474;2023-03-01T01:34:19;12.82;;;7.05;;
22949;SDS011;11641;51.018;4.474;2023-03-01T01:36:49;12.40;;;6.97;;
22949;SDS011;11641;51.018;4.474;2023-03-01T01:39:18;12.70;;;7.30;;
22949;SDS011;11641;51.018;4.474;2023-03-01T01:41:44;10.30;;;7.30;;
22949;SDS011;11641;51.018;4.474;2023-03-01T01:44:25;12.25;;;7.32;;
22949;SDS011;11641;51.018;4.474;2023-03-01T01:46:54;11.77;;;7.65;;
22949;SDS011;11641;51.018;4.474;2023-03-01T01:49:37;11.30;;;6.75;;
22949;SDS011;11641;51.018;4.474;2023-03-01T01:52:23;11.05;;;7.10;;
22949;SDS011;11641;51.018;4.474;2023-03-01T01:54:57;12.30;;;6.90;;
22949;SDS011;11641;51.018;4.474;2023-03-01T01:57:35;14.70;;;6.97;;
22949;SDS011;11641;51.018;4.474;2023-03-01T02:00:11;12.43;;;7.20;;
22949;SDS011;11641;51.018;4.474;2023-03-01T02:02:41;15.18;;;6.90;;
22949;SDS011;11641;51.018;4.474;2023-03-01T02:05:12;12.35;;;7.30;;
22949;SDS011;11641;51.018;4.474;2023-03-01T02:07:46;11.35;;;7.40;;
22949;SDS011;11641;51.018;4.474;2023-03-01T02:10:13;11.75;;;7.63;;
22949;SDS011;11641;51.018;4.474;2023-03-01T02:12:40;9.65;;;6.80;;
22949;SDS011;11641;51.018;4.474;2023-03-01T02:15:06;11.20;;;7.38;;
22949;SDS011;11641;51.018;4.474;2023-03-01T02:17:32;13.95;;;7.47;;
22949;SDS011;11641;51.018;4.474;2023-03-01T02:22:34;12.75;;;7.40;;
22949;SDS011;11641;51.018;4.474;2023-03-01T02:27:33;11.55;;;7.30;;
22949;SDS011;11641;51.018;4.474;2023-03-01T02:30:20;12.73;;;7.50;;
22949;SDS011;11641;51.018;4.474;2023-03-01T02:32:47;10.38;;;7.15;;
22949;SDS011;11641;51.018;4.474;2023-03-01T02:35:14;11.30;;;7.20;;
22949;SDS011;11641;51.018;4.474;2023-03-01T02:37:43;10.93;;;7.40;;
22949;SDS011;11641;51.018;4.474;2023-03-01T02:40:11;10.20;;;7.40;;
22949;SDS011;11641;51.018;4.474;2023-03-01T02:42:47;13.68;;;7.43;;
22949;SDS011;11641;51.018;4.474;2023-03-01T02:45:18;13.02;;;7.75;;
22949;SDS011;11641;51.018;4.474;2023-03-01T02:47:44;13.65;;;7.85;;
22949;SDS011;11641;51.018;4.474;2023-03-01T02:50:22;10.73;;;7.10;;
22949;SDS011;11641;51.018;4.474;2023-03-01T02:56:24;10.35;;;7.20;;
22949;SDS011;11641;51.018;4.474;2023-03-01T02:58:51;13.27;;;7.57;;
22949;SDS011;11641;51.018;4.474;2023-03-01T03:01:18;11.35;;;7.50;;
22949;SDS011;11641;51.018;4.474;2023-03-01T03:03:45;13.18;;;7.78;;
22949;SDS011;11641;51.018;4.474;2023-03-01T03:06:11;15.57;;;8.68;;
22949;SDS011;11641;51.018;4.474;2023-03-01T03:08:37;12.65;;;7.80;;
22949;SDS011;11641;51.018;4.474;2023-03-01T03:11:03;15.35;;;7.40;;
22949;SDS011;11641;51.018;4.474;2023-03-01T03:13:29;11.32;;;7.72;;
22949;SDS011;11641;51.018;4.474;2023-03-01T03:15:55;10.80;;;7.85;;
22949;SDS011;11641;51.018;4.474;2023-03-01T03:18:21;12.52;;;8.10;;
22949;SDS011;11641;51.018;4.474;2023-03-01T03:20:51;12.55;;;7.93;;
22949;SDS011;11641;51.018;4.474;2023-03-01T03:23:21;13.30;;;7.88;;
22949;SDS011;11641;51.018;4.474;2023-03-01T03:25:50;17.35;;;7.97;;
22949;SDS011;11641;51.018;4.474;2023-03-01T03:28:16;12.60;;;7.57;;
22949;SDS011;11641;51.018;4.474;2023-03-01T03:30:44;12.90;;;8.20;;
22949;SDS011;11641;51.018;4.474;2023-03-01T03:33:11;12.15;;;8.13;;
22949;SDS011;11641;51.018;4.474;2023-03-01T03:35:48;12.20;;;8.05;;
22949;SDS011;11641;51.018;4.474;2023-03-01T03:38:15;12.95;;;7.43;;
22949;SDS011;11641;51.018;4.474;2023-03-01T03:40:47;12.52;;;7.65;;
22949;SDS011;11641;51.018;4.474;2023-03-01T03:43:19;11.38;;;7.95;;
22949;SDS011;11641;51.018;4.474;2023-03-01T03:45:47;9.20;;;6.72;;
22949;SDS011;11641;51.018;4.474;2023-03-01T03:48:14;10.23;;;7.43;;
22949;SDS011;11641;51.018;4.474;2023-03-01T03:50:46;12.30;;;7.50;;
22949;SDS011;11641;51.018;4.474;2023-03-01T03:53:14;10.48;;;7.20;;
22949;SDS011;11641;51.018;4.474;2023-03-01T03:55:40;12.77;;;7.70;;
22949;SDS011;11641;51.018;4.474;2023-03-01T03:58:07;13.07;;;7.63;;
22949;SDS011;11641;51.018;4.474;2023-03-01T04:00:38;13.60;;;8.43;;
22949;SDS011;11641;51.018;4.474;2023-03-01T04:03:06;12.55;;;7.65;;
22949;SDS011;11641;51.018;4.474;2023-03-01T04:05:33;11.50;;;7.60;;
22949;SDS011;11641;51.018;4.474;2023-03-01T04:08:00;13.65;;;7.63;;
22949;SDS011;11641;51.018;4.474;2023-03-01T04:10:35;15.77;;;8.35;;
22949;SDS011;11641;51.018;4.474;2023-03-01T04:13:09;13.13;;;7.50;;
22949;SDS011;11641;51.018;4.474;2023-03-01T04:15:37;12.82;;;7.97;;
22949;SDS011;11641;51.018;4.474;2023-03-01T04:18:03;12.25;;;7.53;;
22949;SDS011;11641;51.018;4.474;2023-03-01T04:20:33;11.05;;;7.53;;
22949;SDS011;11641;51.018;4.474;2023-03-01T04:23:03;13.75;;;7.95;;
22949;SDS011;11641;51.018;4.474;2023-03-01T04:30:46;14.55;;;8.18;;
22949;SDS011;11641;51.018;4.474;2023-03-01T04:33:11;11.98;;;8.00;;
22949;SDS011;11641;51.018;4.474;2023-03-01T04:35:37;13.95;;;7.05;;
22949;SDS011;11641;51.018;4.474;2023-03-01T04:38:04;15.93;;;7.65;;
22949;SDS011;11641;51.018;4.474;2023-03-01T04:40:30;15.05;;;8.25;;
22949;SDS011;11641;51.018;4.474;2023-03-01T04:42:56;12.55;;;7.95;;
22949;SDS011;11641;51.018;4.474;2023-03-01T04:45:22;12.60;;;8.02;;
22949;SDS011;11641;51.018;4.474;2023-03-01T04:47:48;10.90;;;7.60;;
22949;SDS011;11641;51.018;4.474;2023-03-01T04:50:16;13.30;;;7.82;;
22949;SDS011;11641;51.018;4.474;2023-03-01T04:52:45;12.65;;;7.55;;
22949;SDS011;11641;51.018;4.474;2023-03-01T04:55:12;12.10;;;7.93;;
22949;SDS011;11641;51.018;4.474;2023-03-01T04:57:38;12.40;;;8.27;;
22949;SDS011;11641;51.018;4.474;2023-03-01T05:00:04;12.65;;;7.97;;
22949;SDS011;11641;51.018;4.474;2023-03-01T05:02:55;16.42;;;8.23;;
22949;SDS011;11641;51.018;4.474;2023-03-01T05:07:57;12.30;;;7.75;;
22949;SDS011;11641;51.018;4.474;2023-03-01T05:10:25;15.43;;;8.13;;
22949;SDS011;11641;51.018;4.474;2023-03-01T05:12:53;16.02;;;8.13;;
22949;SDS011;11641;51.018;4.474;2023-03-01T05:15:22;13.30;;;7.50;;
22949;SDS011;11641;51.018;4.474;2023-03-01T05:17:50;11.40;;;7.43;;
22949;SDS011;11641;51.018;4.474;2023-03-01T05:20:17;13.18;;;7.70;;
22949;SDS011;11641;51.018;4.474;2023-03-01T05:22:47;10.73;;;7.32;;
22949;SDS011;11641;51.018;4.474;2023-03-01T05:25:14;13.30;;;7.22;;
22949;SDS011;11641;51.018;4.474;2023-03-01T05:27:40;11.93;;;7.53;;
22949;SDS011;11641;51.018;4.474;2023-03-01T05:30:05;12.15;;;7.65;;
22949;SDS011;11641;51.018;4.474;2023-03-01T05:32:41;11.32;;;7.20;;
22949;SDS011;11641;51.018;4.474;2023-03-01T05:35:10;13.32;;;8.07;;
22949;SDS011;11641;51.018;4.474;2023-03-01T05:37:41;11.20;;;7.22;;
22949;SDS011;11641;51.018;4.474;2023-03-01T05:40:14;12.85;;;7.88;;
22949;SDS011;11641;51.018;4.474;2023-03-01T05:42:48;11.95;;;8.00;;
22949;SDS011;11641;51.018;4.474;2023-03-01T05:45:22;13.93;;;8.07;;
22949;SDS011;11641;51.018;4.474;2023-03-01T05:47:51;12.35;;;7.65;;
22949;SDS011;11641;51.018;4.474;2023-03-01T05:50:21;12.18;;;7.53;;
22949;SDS011;11641;51.018;4.474;2023-03-01T05:52:49;12.82;;;7.30;;
22949;SDS011;11641;51.018;4.474;2023-03-01T05:55:23;12.18;;;8.25;;
22949;SDS011;11641;51.018;4.474;2023-03-01T05:57:49;13.80;;;7.60;;
22949;SDS011;11641;51.018;4.474;2023-03-01T06:00:16;12.73;;;7.80;;
22949;SDS011;11641;51.018;4.474;2023-03-01T06:02:44;13.07;;;7.55;;
22949;SDS011;11641;51.018;4.474;2023-03-01T06:05:15;11.90;;;7.70;;
22949;SDS011;11641;51.018;4.474;2023-03-01T06:07:43;11.57;;;7.68;;
22949;SDS011;11641;51.018;4.474;2023-03-01T06:10:09;14.07;;;7.78;;
22949;SDS011;11641;51.018;4.474;2023-03-01T06:12:36;14.30;;;7.50;;
22949;SDS011;11641;51.018;4.474;2023-03-01T06:15:04;13.88;;;7.70;;
22949;SDS011;11641;51.018;4.474;2023-03-01T06:17:32;13.93;;;7.97;;
22949;SDS011;11641;51.018;4.474;2023-03-01T06:20:05;11.57;;;7.65;;
22949;SDS011;11641;51.018;4.474;2023-03-01T06:22:35;15.43;;;8.45;;
22949;SDS011;11641;51.018;4.474;2023-03-01T06:25:01;11.05;;;7.68;;
22949;SDS011;11641;51.018;4.474;2023-03-01T06:27:27;13.00;;;7.72;;
22949;SDS011;11641;51.018;4.474;2023-03-01T06:29:55;14.43;;;7.55;;
22949;SDS011;11641;51.018;4.474;2023-03-01T06:32:21;13.68;;;8.02;;
22949;SDS011;11641;51.018;4.474;2023-03-01T06:34:46;12.68;;;7.75;;
22949;SDS011;11641;51.018;4.474;2023-03-01T06:37:15;14.27;;;7.93;;
22949;SDS011;11641;51.018;4.474;2023-03-01T06:39:43;12.73;;;7.68;;
22949;SDS011;11641;51.018;4.474;2023-03-01T06:42:08;12.93;;;7.68;;
22949;SDS011;11641;51.018;4.474;2023-03-01T06:44:35;16.23;;;8.15;;
22949;SDS011;11641;51.018;4.474;2023-03-01T06:47:01;15.25;;;9.00;;
22949;SDS011;11641;51.018;4.474;2023-03-01T06:49:28;12.57;;;7.85;;
22949;SDS011;11641;51.018;4.474;2023-03-01T06:51:55;14.18;;;7.68;;
22949;SDS011;11641;51.018;4.474;2023-03-01T06:54:23;17.90;;;8.73;;
22949;SDS011;11641;51.018;4.474;2023-03-01T06:56:49;12.98;;;8.25;;
22949;SDS011;11641;51.018;4.474;2023-03-01T06:59:16;18.48;;;7.97;;
22949;SDS011;11641;51.018;4.474;2023-03-01T07:01:42;13.40;;;8.10;;
22949;SDS011;11641;51.018;4.474;2023-03-01T07:04:09;18.15;;;8.77;;
22949;SDS011;11641;51.018;4.474;2023-03-01T07:06:35;20.35;;;8.57;;
22949;SDS011;11641;51.018;4.474;2023-03-01T07:09:03;15.05;;;8.30;;
22949;SDS011;11641;51.018;4.474;2023-03-01T07:11:29;12.65;;;8.00;;
22949;SDS011;11641;51.018;4.474;2023-03-01T07:13:54;15.18;;;8.90;;
22949;SDS011;11641;51.018;4.474;2023-03-01T07:16:20;13.55;;;8.70;;
22949;SDS011;11641;51.018;4.474;2023-03-01T07:18:46;13.32;;;8.45;;
22949;SDS011;11641;51.018;4.474;2023-03-01T07:21:14;13.90;;;8.38;;
22949;SDS011;11641;51.018;4.474;2023-03-01T07:23:41;13.88;;;8.45;;
22949;SDS011;11641;51.018;4.474;2023-03-01T07:26:07;14.45;;;7.88;;
22949;SDS011;11641;51.018;4.474;2023-03-01T07:28:33;17.95;;;8.77;;
22949;SDS011;11641;51.018;4.474;2023-03-01T07:31:03;13.27;;;8.15;;
22949;SDS011;11641;51.018;4.474;2023-03-01T07:33:30;15.02;;;8.48;;
22949;SDS011;11641;51.018;4.474;2023-03-01T07:36:02;10.85;;;7.63;;
22949;SDS011;11641;51.018;4.474;2023-03-01T07:38:29;11.93;;;7.43;;
22949;SDS011;11641;51.018;4.474;2023-03-01T07:40:58;15.32;;;8.48;;
22949;SDS011;11641;51.018;4.474;2023-03-01T07:43:26;17.35;;;8.43;;
22949;SDS011;11641;51.018;4.474;2023-03-01T07:45:54;14.95;;;8.73;;
22949;SDS011;11641;51.018;4.474;2023-03-01T07:48:22;17.15;;;8.25;;
22949;SDS011;11641;51.018;4.474;2023-03-01T07:50:48;13.85;;;8.30;;
22949;SDS011;11641;51.018;4.474;2023-03-01T07:53:14;17.95;;;8.40;;
22949;SDS011;11641;51.018;4.474;2023-03-01T07:55:39;13.50;;;7.75;;
22949;SDS011;11641;51.018;4.474;2023-03-01T07:58:05;16.73;;;8.40;;
22949;SDS011;11641;51.018;4.474;2023-03-01T08:00:31;14.98;;;8.45;;
22949;SDS011;11641;51.018;4.474;2023-03-01T08:02:58;14.93;;;8.45;;
22949;SDS011;11641;51.018;4.474;2023-03-01T08:05:25;11.90;;;7.90;;
22949;SDS011;11641;51.018;4.474;2023-03-01T08:07:51;13.50;;;8.27;;
22949;SDS011;11641;51.018;4.474;2023-03-01T08:10:20;16.45;;;8.52;;
22949;SDS011;11641;51.018;4.474;2023-03-01T08:12:45;16.15;;;8.15;;
22949;SDS011;11641;51.018;4.474;2023-03-01T08:15:11;14.82;;;8.27;;
22949;SDS011;11641;51.018;4.474;2023-03-01T08:17:37;19.73;;;8.48;;
22949;SDS011;11641;51.018;4.474;2023-03-01T08:20:03;15.15;;;9.00;;
22949;SDS011;11641;51.018;4.474;2023-03-01T08:22:32;15.02;;;8.55;;
22949;SDS011;11641;51.018;4.474;2023-03-01T08:25:00;13.70;;;7.45;;
22949;SDS011;11641;51.018;4.474;2023-03-01T08:27:26;15.27;;;8.15;;
22949;SDS011;11641;51.018;4.474;2023-03-01T08:29:51;15.10;;;8.80;;
22949;SDS011;11641;51.018;4.474;2023-03-01T08:32:17;13.13;;;8.48;;
22949;SDS011;11641;51.018;4.474;2023-03-01T08:34:45;15.02;;;8.10;;
22949;SDS011;11641;51.018;4.474;2023-03-01T08:37:11;15.45;;;8.15;;
22949;SDS011;11641;51.018;4.474;2023-03-01T08:39:37;19.73;;;9.90;;
22949;SDS011;11641;51.018;4.474;2023-03-01T08:42:03;17.08;;;8.63;;
22949;SDS011;11641;51.018;4.474;2023-03-01T08:44:29;16.55;;;8.90;;
22949;SDS011;11641;51.018;4.474;2023-03-01T08:46:55;13.55;;;8.77;;
22949;SDS011;11641;51.018;4.474;2023-03-01T08:49:23;15.60;;;7.72;;
22949;SDS011;11641;51.018;4.474;2023-03-01T08:51:49;13.35;;;8.45;;
22949;SDS011;11641;51.018;4.474;2023-03-01T08:54:17;11.25;;;7.85;;
22949;SDS011;11641;51.018;4.474;2023-03-01T08:56:45;14.23;;;8.10;;
22949;SDS011;11641;51.018;4.474;2023-03-01T08:59:11;12.68;;;8.02;;
22949;SDS011;11641;51.018;4.474;2023-03-01T09:01:38;14.30;;;8.27;;
22949;SDS011;11641;51.018;4.474;2023-03-01T09:04:05;16.63;;;8.75;;
22949;SDS011;11641;51.018;4.474;2023-03-01T09:06:34;16.40;;;8.40;;
22949;SDS011;11641;51.018;4.474;2023-03-01T09:09:00;13.60;;;8.25;;
22949;SDS011;11641;51.018;4.474;2023-03-01T09:11:27;13.77;;;8.63;;
22949;SDS011;11641;51.018;4.474;2023-03-01T09:13:53;14.07;;;8.30;;
22949;SDS011;11641;51.018;4.474;2023-03-01T09:16:19;13.00;;;8.40;;
22949;SDS011;11641;51.018;4.474;2023-03-01T09:18:50;11.50;;;7.68;;
22949;SDS011;11641;51.018;4.474;2023-03-01T09:21:17;10.65;;;7.75;;
22949;SDS011;11641;51.018;4.474;2023-03-01T09:23:46;11.93;;;7.93;;
22949;SDS011;11641;51.018;4.474;2023-03-01T09:26:13;11.68;;;8.13;;
22949;SDS011;11641;51.018;4.474;2023-03-01T09:28:44;13.00;;;6.93;;
22949;SDS011;11641;51.018;4.474;2023-03-01T09:31:10;11.35;;;7.85;;
22949;SDS011;11641;51.018;4.474;2023-03-01T09:33:38;11.55;;;7.80;;
22949;SDS011;11641;51.018;4.474;2023-03-01T09:36:06;9.70;;;7.38;;
22949;SDS011;11641;51.018;4.474;2023-03-01T09:38:33;10.45;;;7.57;;
22949;SDS011;11641;51.018;4.474;2023-03-01T09:41:02;11.90;;;7.90;;
22949;SDS011;11641;51.018;4.474;2023-03-01T09:46:10;10.70;;;7.20;;
22949;SDS011;11641;51.018;4.474;2023-03-01T09:48:42;13.55;;;7.60;;
22949;SDS011;11641;51.018;4.474;2023-03-01T09:51:18;10.60;;;7.82;;
22949;SDS011;11641;51.018;4.474;2023-03-01T09:53:50;15.73;;;7.95;;
22949;SDS011;11641;51.018;4.474;2023-03-01T09:56:20;13.07;;;8.15;;
22949;SDS011;11641;51.018;4.474;2023-03-01T10:01:57;11.57;;;7.30;;
22949;SDS011;11641;51.018;4.474;2023-03-01T10:04:38;11.65;;;7.20;;
22949;SDS011;11641;51.018;4.474;2023-03-01T10:10:15;12.60;;;7.28;;
22949;SDS011;11641;51.018;4.474;2023-03-01T10:12:51;11.57;;;7.45;;
22949;SDS011;11641;51.018;4.474;2023-03-01T10:15:20;10.40;;;7.63;;
22949;SDS011;11641;51.018;4.474;2023-03-01T10:17:57;13.30;;;7.40;;
22949;SDS011;11641;51.018;4.474;2023-03-01T10:21:08;15.27;;;7.13;;
22949;SDS011;11641;51.018;4.474;2023-03-01T10:23:29;10.23;;;6.72;;
22949;SDS011;11641;51.018;4.474;2023-03-01T10:31:13;11.52;;;7.35;;
22949;SDS011;11641;51.018;4.474;2023-03-01T10:33:54;12.35;;;7.07;;
22949;SDS011;11641;51.018;4.474;2023-03-01T10:36:22;10.57;;;7.65;;
22949;SDS011;11641;51.018;4.474;2023-03-01T10:41:14;9.00;;;6.10;;
22949;SDS011;11641;51.018;4.474;2023-03-01T10:43:47;10.50;;;6.60;;
22949;SDS011;11641;51.018;4.474;2023-03-01T10:46:35;15.75;;;6.72;;
22949;SDS011;11641;51.018;4.474;2023-03-01T10:51:46;12.45;;;6.97;;
22949;SDS011;11641;51.018;4.474;2023-03-01T10:54:17;8.32;;;6.78;;
22949;SDS011;11641;51.018;4.474;2023-03-01T10:56:59;12.47;;;7.07;;
22949;SDS011;11641;51.018;4.474;2023-03-01T10:59:30;9.52;;;6.50;;
22949;SDS011;11641;51.018;4.474;2023-03-01T11:02:18;8.30;;;6.55;;
22949;SDS011;11641;51.018;4.474;2023-03-01T11:05:00;11.25;;;6.60;;
22949;SDS011;11641;51.018;4.474;2023-03-01T11:07:28;8.90;;;6.70;;
22949;SDS011;11641;51.018;4.474;2023-03-01T11:09:54;9.63;;;6.78;;
22949;SDS011;11641;51.018;4.474;2023-03-01T11:12:20;9.60;;;6.53;;
22949;SDS011;11641;51.018;4.474;2023-03-01T11:14:47;10.18;;;6.55;;
22949;SDS011;11641;51.018;4.474;2023-03-01T11:17:17;9.43;;;6.47;;
22949;SDS011;11641;51.018;4.474;2023-03-01T11:22:45;11.88;;;7.20;;
22949;SDS011;11641;51.018;4.474;2023-03-01T11:25:15;7.97;;;6.35;;
22949;SDS011;11641;51.018;4.474;2023-03-01T11:27:44;10.73;;;5.95;;
22949;SDS011;11641;51.018;4.474;2023-03-01T11:36:31;9.23;;;6.43;;
22949;SDS011;11641;51.018;4.474;2023-03-01T11:39:13;9.88;;;6.90;;
22949;SDS011;11641;51.018;4.474;2023-03-01T11:41:48;8.07;;;6.35;;
22949;SDS011;11641;51.018;4.474;2023-03-01T11:44:22;7.70;;;6.20;;
22949;SDS011;11641;51.018;4.474;2023-03-01T12:09:16;7.18;;;5.90;;
22949;SDS011;11641;51.018;4.474;2023-03-01T12:14:40;6.50;;;5.55;;
22949;SDS011;11641;51.018;4.474;2023-03-01T12:25:45;7.55;;;5.30;;
22949;SDS011;11641;51.018;4.474;2023-03-01T12:34:06;7.05;;;5.43;;
22949;SDS011;11641;51.018;4.474;2023-03-01T12:46:02;6.93;;;5.53;;
22949;SDS011;11641;51.018;4.474;2023-03-01T12:48:34;9.95;;;6.07;;
22949;SDS011;11641;51.018;4.474;2023-03-01T12:51:15;9.50;;;6.10;;
22949;SDS011;11641;51.018;4.474;2023-03-01T12:53:49;6.97;;;6.03;;
22949;SDS011;11641;51.018;4.474;2023-03-01T12:56:19;7.97;;;6.30;;
22949;SDS011;11641;51.018;4.474;2023-03-01T12:58:54;9.35;;;6.28;;
22949;SDS011;11641;51.018;4.474;2023-03-01T13:04:53;8.82;;;5.85;;
22949;SDS011;11641;51.018;4.474;2023-03-01T13:07:44;8.77;;;6.03;;
22949;SDS011;11641;51.018;4.474;2023-03-01T13:10:33;6.90;;;5.20;;
22949;SDS011;11641;51.018;4.474;2023-03-01T13:13:13;9.35;;;4.85;;
22949;SDS011;11641;51.018;4.474;2023-03-01T13:15:45;8.57;;;5.50;;
22949;SDS011;11641;51.018;4.474;2023-03-01T13:28:36;6.82;;;5.65;;
22949;SDS011;11641;51.018;4.474;2023-03-01T13:31:03;7.35;;;5.75;;
22949;SDS011;11641;51.018;4.474;2023-03-01T13:35:58;10.30;;;5.55;;
22949;SDS011;11641;51.018;4.474;2023-03-01T13:38:38;7.80;;;5.20;;
22949;SDS011;11641;51.018;4.474;2023-03-01T13:49:33;6.80;;;5.32;;
22949;SDS011;11641;51.018;4.474;2023-03-01T13:52:00;7.90;;;5.25;;
22949;SDS011;11641;51.018;4.474;2023-03-01T13:54:30;8.77;;;5.85;;
22949;SDS011;11641;51.018;4.474;2023-03-01T13:56:59;11.82;;;6.25;;
22949;SDS011;11641;51.018;4.474;2023-03-01T13:59:26;9.50;;;5.90;;
22949;SDS011;11641;51.018;4.474;2023-03-01T14:01:58;9.18;;;5.82;;
22949;SDS011;11641;51.018;4.474;2023-03-01T14:04:28;6.80;;;5.20;;
22949;SDS011;11641;51.018;4.474;2023-03-01T14:07:17;7.80;;;5.50;;
22949;SDS011;11641;51.018;4.474;2023-03-01T14:09:48;9.27;;;5.45;;
22949;SDS011;11641;51.018;4.474;2023-03-01T14:12:29;12.07;;;6.82;;
22949;SDS011;11641;51.018;4.474;2023-03-01T14:23:20;9.80;;;5.82;;
22949;SDS011;11641;51.018;4.474;2023-03-01T14:25:54;8.15;;;5.80;;
22949;SDS011;11641;51.018;4.474;2023-03-01T14:28:24;10.25;;;5.75;;
22949;SDS011;11641;51.018;4.474;2023-03-01T14:30:59;7.50;;;5.80;;
22949;SDS011;11641;51.018;4.474;2023-03-01T14:33:30;7.32;;;5.70;;
22949;SDS011;11641;51.018;4.474;2023-03-01T14:36:08;9.57;;;6.65;;
22949;SDS011;11641;51.018;4.474;2023-03-01T14:41:16;8.70;;;6.13;;
22949;SDS011;11641;51.018;4.474;2023-03-01T14:43:46;9.52;;;5.78;;
22949;SDS011;11641;51.018;4.474;2023-03-01T14:46:25;9.05;;;6.35;;
22949;SDS011;11641;51.018;4.474;2023-03-01T14:49:19;7.75;;;6.28;;
22949;SDS011;11641;51.018;4.474;2023-03-01T14:51:57;9.90;;;6.10;;
22949;SDS011;11641;51.018;4.474;2023-03-01T14:54:29;11.07;;;6.03;;
22949;SDS011;11641;51.018;4.474;2023-03-01T14:57:21;8.30;;;5.97;;
22949;SDS011;11641;51.018;4.474;2023-03-01T14:59:49;7.07;;;5.65;;
22949;SDS011;11641;51.018;4.474;2023-03-01T15:02:19;9.48;;;6.10;;
22949;SDS011;11641;51.018;4.474;2023-03-01T15:04:57;7.20;;;5.78;;
22949;SDS011;11641;51.018;4.474;2023-03-01T15:07:33;7.20;;;5.38;;
22949;SDS011;11641;51.018;4.474;2023-03-01T15:10:02;8.05;;;5.82;;
22949;SDS011;11641;51.018;4.474;2023-03-01T15:14:56;9.80;;;6.30;;
22949;SDS011;11641;51.018;4.474;2023-03-01T15:20:01;10.07;;;6.22;;
22949;SDS011;11641;51.018;4.474;2023-03-01T15:22:40;7.55;;;6.15;;
22949;SDS011;11641;51.018;4.474;2023-03-01T15:25:16;7.53;;;6.10;;
22949;SDS011;11641;51.018;4.474;2023-03-01T15:27:50;11.90;;;6.18;;
22949;SDS011;11641;51.018;4.474;2023-03-01T15:30:17;8.73;;;6.07;;
22949;SDS011;11641;51.018;4.474;2023-03-01T15:35:45;8.75;;;5.95;;
22949;SDS011;11641;51.018;4.474;2023-03-01T15:41:01;7.55;;;6.10;;
22949;SDS011;11641;51.018;4.474;2023-03-01T15:43:45;10.13;;;6.13;;
22949;SDS011;11641;51.018;4.474;2023-03-01T15:46:25;11.20;;;5.18;;
22949;SDS011;11641;51.018;4.474;2023-03-01T15:48:58;8.15;;;5.93;;
22949;SDS011;11641;51.018;4.474;2023-03-01T15:53:58;9.93;;;5.80;;
22949;SDS011;11641;51.018;4.474;2023-03-01T15:56:25;6.95;;;5.75;;
22949;SDS011;11641;51.018;4.474;2023-03-01T15:58:51;8.65;;;5.60;;
22949;SDS011;11641;51.018;4.474;2023-03-01T16:01:17;6.90;;;5.20;;
22949;SDS011;11641;51.018;4.474;2023-03-01T16:03:43;9.57;;;5.13;;
22949;SDS011;11641;51.018;4.474;2023-03-01T16:06:12;7.80;;;5.90;;
22949;SDS011;11641;51.018;4.474;2023-03-01T16:08:38;10.27;;;6.10;;
22949;SDS011;11641;51.018;4.474;2023-03-01T16:11:05;9.25;;;5.78;;
22949;SDS011;11641;51.018;4.474;2023-03-01T16:13:42;9.25;;;5.63;;
22949;SDS011;11641;51.018;4.474;2023-03-01T16:16:17;7.43;;;5.70;;
22949;SDS011;11641;51.018;4.474;2023-03-01T16:18:43;11.73;;;5.80;;
22949;SDS011;11641;51.018;4.474;2023-03-01T16:21:12;7.07;;;5.25;;
22949;SDS011;11641;51.018;4.474;2023-03-01T16:23:40;9.45;;;5.47;;
22949;SDS011;11641;51.018;4.474;2023-03-01T16:26:06;13.52;;;5.93;;
22949;SDS011;11641;51.018;4.474;2023-03-01T16:28:33;8.63;;;6.22;;
22949;SDS011;11641;51.018;4.474;2023-03-01T16:30:58;7.60;;;5.80;;
22949;SDS011;11641;51.018;4.474;2023-03-01T16:33:26;9.88;;;5.82;;
22949;SDS011;11641;51.018;4.474;2023-03-01T16:35:55;7.63;;;5.90;;
22949;SDS011;11641;51.018;4.474;2023-03-01T16:38:25;8.70;;;6.47;;
22949;SDS011;11641;51.018;4.474;2023-03-01T16:40:51;12.77;;;7.15;;
22949;SDS011;11641;51.018;4.474;2023-03-01T16:43:20;14.75;;;6.80;;
22949;SDS011;11641;51.018;4.474;2023-03-01T16:45:45;10.10;;;6.13;;
22949;SDS011;11641;51.018;4.474;2023-03-01T16:48:11;8.38;;;6.60;;
22949;SDS011;11641;51.018;4.474;2023-03-01T16:50:37;9.10;;;7.03;;
22949;SDS011;11641;51.018;4.474;2023-03-01T16:53:03;10.90;;;6.82;;
22949;SDS011;11641;51.018;4.474;2023-03-01T16:55:33;11.18;;;6.53;;
22949;SDS011;11641;51.018;4.474;2023-03-01T16:57:59;10.90;;;6.57;;
22949;SDS011;11641;51.018;4.474;2023-03-01T17:00:25;14.43;;;6.63;;
22949;SDS011;11641;51.018;4.474;2023-03-01T17:02:54;9.55;;;6.60;;
22949;SDS011;11641;51.018;4.474;2023-03-01T17:05:22;9.77;;;6.93;;
22949;SDS011;11641;51.018;4.474;2023-03-01T17:07:52;11.35;;;7.10;;
22949;SDS011;11641;51.018;4.474;2023-03-01T17:10:20;10.98;;;6.55;;
22949;SDS011;11641;51.018;4.474;2023-03-01T17:12:50;10.93;;;6.80;;
22949;SDS011;11641;51.018;4.474;2023-03-01T17:15:16;14.85;;;6.85;;
22949;SDS011;11641;51.018;4.474;2023-03-01T17:17:42;10.30;;;7.25;;